METAR Data
IDs: Format: Raw Decoded Include TAF

Data at: 2225 UTC 22 Sep 2020

METAR for:KFPK (Charotte/Beach Fld, MI, US)
Text:KFPK 222215Z AUTO 25003KT 10SM CLR 24/10 A3010 RMK AO2 T02360098
Temperature: 23.6°C ( 74°F)
Dewpoint: 9.8°C ( 50°F) [RH = 42%]
Pressure (altimeter):30.10 inches Hg (1019.4 mb)
Winds:from the WSW (250 degrees) at 3 MPH (3 knots; 1.5 m/s)
Visibility:10 or more sm (16+ km)
Ceiling:at least 12,000 feet AGL
Clouds:sky clear below 12,000 feet AGL
QC Flag:automated observation with no human augmentation

TAF for:KFPK (Charotte/Beach Fld, MI, US)
Text:No data found

METAR for:KLAN (Lansing/Capital City, MI, US)
Text:KLAN 222153Z 22009KT 10SM CLR 24/09 A3010 RMK AO2 SLP193 T02390094
Temperature: 23.9°C ( 75°F)
Dewpoint: 9.4°C ( 49°F) [RH = 40%]
Pressure (altimeter):30.10 inches Hg (1019.4 mb) [Sea level pressure: 1019.3 mb]
Winds:from the SW (220 degrees) at 10 MPH (9 knots; 4.6 m/s)
Visibility:10 or more sm (16+ km)
Ceiling:at least 12,000 feet AGL
Clouds:sky clear below 12,000 feet AGL

TAF for:KLAN (Lansing/Capital City, MI, US) issued at 1735 UTC 22 Sep 2020
Text:KLAN 221735Z 2218/2318 24007KT P6SM SCT200
Forecast period:1800 UTC 22 September 2020 to 0100 UTC 23 September 2020
Forecast type:FROM: standard forecast or significant change
Winds:from the WSW (240 degrees) at 8 MPH (7 knots; 3.6 m/s)
Visibility:6 or more sm (10+ km)
Ceiling:at least 12,000 feet AGL
Clouds: scattered clouds at 20000 feet AGL
Text:FM230100 23004KT P6SM SKC
Forecast period:0100 to 1400 UTC 23 September 2020
Forecast type:FROM: standard forecast or significant change
Winds:from the SW (230 degrees) at 5 MPH (4 knots; 2.1 m/s)
Visibility:6 or more sm (10+ km)
Ceiling:at least 12,000 feet AGL
Clouds:clear skies
Text:FM231400 25008KT P6SM SCT040
Forecast period:1400 to 1800 UTC 23 September 2020
Forecast type:FROM: standard forecast or significant change
Winds:from the WSW (250 degrees) at 9 MPH (8 knots; 4.1 m/s)
Visibility:6 or more sm (10+ km)
Ceiling:at least 12,000 feet AGL
Clouds: scattered clouds at 4000 feet AGL